sensor_id;sensor_type;location;lat;lon;timestamp;temperature;humidity
9790;DHT22;4934;50.852;8.098;2023-06-14T00:00:20;13.20;99.90
9790;DHT22;4934;50.852;8.098;2023-06-14T00:02:46;13.10;99.90
9790;DHT22;4934;50.852;8.098;2023-06-14T00:05:12;12.90;99.90
9790;DHT22;4934;50.852;8.098;2023-06-14T00:07:39;12.90;99.90
9790;DHT22;4934;50.852;8.098;2023-06-14T00:10:09;12.90;99.90
9790;DHT22;4934;50.852;8.098;2023-06-14T00:12:36;12.90;99.90
9790;DHT22;4934;50.852;8.098;2023-06-14T00:15:02;12.90;99.90
9790;DHT22;4934;50.852;8.098;2023-06-14T00:17:27;13.00;99.90
9790;DHT22;4934;50.852;8.098;2023-06-14T00:19:57;13.00;99.90
9790;DHT22;4934;50.852;8.098;2023-06-14T00:22:24;12.90;99.90
9790;DHT22;4934;50.852;8.098;2023-06-14T00:24:54;12.90;99.90
9790;DHT22;4934;50.852;8.098;2023-06-14T00:27:19;12.90;99.90
9790;DHT22;4934;50.852;8.098;2023-06-14T00:29:45;12.90;99.90
9790;DHT22;4934;50.852;8.098;2023-06-14T00:32:11;12.90;99.90
9790;DHT22;4934;50.852;8.098;2023-06-14T00:34:36;13.00;99.90
9790;DHT22;4934;50.852;8.098;2023-06-14T00:37:02;13.00;99.90
9790;DHT22;4934;50.852;8.098;2023-06-14T00:39:27;13.00;99.90
9790;DHT22;4934;50.852;8.098;2023-06-14T00:41:53;13.00;99.90
9790;DHT22;4934;50.852;8.098;2023-06-14T00:44:19;13.00;99.90
9790;DHT22;4934;50.852;8.098;2023-06-14T00:46:45;13.00;99.90
9790;DHT22;4934;50.852;8.098;2023-06-14T00:49:13;13.00;99.90
9790;DHT22;4934;50.852;8.098;2023-06-14T00:51:40;13.00;99.90
9790;DHT22;4934;50.852;8.098;2023-06-14T00:54:06;13.10;99.90
9790;DHT22;4934;50.852;8.098;2023-06-14T00:56:32;13.10;99.90
9790;DHT22;4934;50.852;8.098;2023-06-14T00:58:58;13.10;99.90
9790;DHT22;4934;50.852;8.098;2023-06-14T01:01:23;13.10;99.90
9790;DHT22;4934;50.852;8.098;2023-06-14T01:03:49;13.00;99.90
9790;DHT22;4934;50.852;8.098;2023-06-14T01:06:19;13.00;99.90
9790;DHT22;4934;50.852;8.098;2023-06-14T01:09:03;13.00;99.90
9790;DHT22;4934;50.852;8.098;2023-06-14T01:11:48;12.90;99.90
9790;DHT22;4934;50.852;8.098;2023-06-14T01:14:16;12.80;99.90
9790;DHT22;4934;50.852;8.098;2023-06-14T01:16:43;12.80;99.90
9790;DHT22;4934;50.852;8.098;2023-06-14T01:19:12;12.80;99.90
9790;DHT22;4934;50.852;8.098;2023-06-14T01:21:39;12.80;99.90
9790;DHT22;4934;50.852;8.098;2023-06-14T01:24:08;12.70;99.90
9790;DHT22;4934;50.852;8.098;2023-06-14T01:26:34;12.60;99.90
9790;DHT22;4934;50.852;8.098;2023-06-14T01:29:01;12.60;99.90
9790;DHT22;4934;50.852;8.098;2023-06-14T01:31:27;12.60;99.90
9790;DHT22;4934;50.852;8.098;2023-06-14T01:33:54;12.60;99.90
9790;DHT22;4934;50.852;8.098;2023-06-14T01:36:21;12.50;99.90
9790;DHT22;4934;50.852;8.098;2023-06-14T01:38:48;12.40;99.90
9790;DHT22;4934;50.852;8.098;2023-06-14T01:41:16;12.30;99.90
9790;DHT22;4934;50.852;8.098;2023-06-14T01:43:42;12.10;99.90
9790;DHT22;4934;50.852;8.098;2023-06-14T01:46:09;12.10;99.90
9790;DHT22;4934;50.852;8.098;2023-06-14T01:48:35;12.00;99.90
9790;DHT22;4934;50.852;8.098;2023-06-14T01:51:01;12.00;99.90
9790;DHT22;4934;50.852;8.098;2023-06-14T01:53:27;12.00;99.90
9790;DHT22;4934;50.852;8.098;2023-06-14T01:55:53;12.00;99.90
9790;DHT22;4934;50.852;8.098;2023-06-14T01:58:19;12.00;99.90
9790;DHT22;4934;50.852;8.098;2023-06-14T02:00:45;12.00;99.90
9790;DHT22;4934;50.852;8.098;2023-06-14T02:03:11;12.00;99.90
9790;DHT22;4934;50.852;8.098;2023-06-14T02:05:37;12.00;99.90
9790;DHT22;4934;50.852;8.098;2023-06-14T02:08:05;12.00;99.90
9790;DHT22;4934;50.852;8.098;2023-06-14T02:10:31;12.00;99.90
9790;DHT22;4934;50.852;8.098;2023-06-14T02:12:56;12.00;99.90
9790;DHT22;4934;50.852;8.098;2023-06-14T02:15:22;12.10;99.90
9790;DHT22;4934;50.852;8.098;2023-06-14T02:17:48;12.00;99.90
9790;DHT22;4934;50.852;8.098;2023-06-14T02:20:17;11.90;99.90
9790;DHT22;4934;50.852;8.098;2023-06-14T02:22:44;11.80;99.90
9790;DHT22;4934;50.852;8.098;2023-06-14T02:25:09;11.60;99.90
9790;DHT22;4934;50.852;8.098;2023-06-14T02:27:35;11.50;99.90
9790;DHT22;4934;50.852;8.098;2023-06-14T02:30:01;11.50;99.90
9790;DHT22;4934;50.852;8.098;2023-06-14T02:32:27;11.50;99.90
9790;DHT22;4934;50.852;8.098;2023-06-14T02:34:53;11.50;99.90
9790;DHT22;4934;50.852;8.098;2023-06-14T02:37:20;11.50;99.90
9790;DHT22;4934;50.852;8.098;2023-06-14T02:39:46;11.50;99.90
9790;DHT22;4934;50.852;8.098;2023-06-14T02:42:11;11.50;99.90
9790;DHT22;4934;50.852;8.098;2023-06-14T02:44:37;11.50;99.90
9790;DHT22;4934;50.852;8.098;2023-06-14T02:47:03;11.50;99.90
9790;DHT22;4934;50.852;8.098;2023-06-14T02:49:29;11.50;99.90
9790;DHT22;4934;50.852;8.098;2023-06-14T02:51:55;11.40;99.90
9790;DHT22;4934;50.852;8.098;2023-06-14T02:54:21;11.40;99.90
9790;DHT22;4934;50.852;8.098;2023-06-14T02:56:46;11.40;99.90
9790;DHT22;4934;50.852;8.098;2023-06-14T02:59:12;11.40;99.90
9790;DHT22;4934;50.852;8.098;2023-06-14T03:01:39;11.40;99.90
9790;DHT22;4934;50.852;8.098;2023-06-14T03:04:07;11.40;99.90
9790;DHT22;4934;50.852;8.098;2023-06-14T03:06:33;11.50;99.90
9790;DHT22;4934;50.852;8.098;2023-06-14T03:09:02;11.50;99.90
9790;DHT22;4934;50.852;8.098;2023-06-14T03:11:31;11.50;99.90
9790;DHT22;4934;50.852;8.098;2023-06-14T03:13:57;11.50;99.90
9790;DHT22;4934;50.852;8.098;2023-06-14T03:16:23;11.50;99.90
9790;DHT22;4934;50.852;8.098;2023-06-14T03:18:52;11.50;99.90
9790;DHT22;4934;50.852;8.098;2023-06-14T03:21:21;11.50;99.90
9790;DHT22;4934;50.852;8.098;2023-06-14T03:23:47;11.50;99.90
9790;DHT22;4934;50.852;8.098;2023-06-14T03:26:14;11.50;99.90
9790;DHT22;4934;50.852;8.098;2023-06-14T03:28:40;11.50;99.90
9790;DHT22;4934;50.852;8.098;2023-06-14T03:31:07;11.50;99.90
9790;DHT22;4934;50.852;8.098;2023-06-14T03:33:34;11.50;99.90
9790;DHT22;4934;50.852;8.098;2023-06-14T03:36:00;11.60;99.90
9790;DHT22;4934;50.852;8.098;2023-06-14T03:38:25;11.50;99.90
9790;DHT22;4934;50.852;8.098;2023-06-14T03:40:51;11.40;99.90
9790;DHT22;4934;50.852;8.098;2023-06-14T03:43:16;11.50;99.90
9790;DHT22;4934;50.852;8.098;2023-06-14T03:45:42;11.70;99.90
9790;DHT22;4934;50.852;8.098;2023-06-14T03:48:08;12.10;99.90
9790;DHT22;4934;50.852;8.098;2023-06-14T03:50:34;12.50;99.90
9790;DHT22;4934;50.852;8.098;2023-06-14T03:53:00;12.70;99.90
9790;DHT22;4934;50.852;8.098;2023-06-14T03:55:26;13.00;99.90
9790;DHT22;4934;50.852;8.098;2023-06-14T03:57:53;13.30;99.90
9790;DHT22;4934;50.852;8.098;2023-06-14T04:00:18;13.70;99.90
9790;DHT22;4934;50.852;8.098;2023-06-14T04:02:44;14.10;99.90
9790;DHT22;4934;50.852;8.098;2023-06-14T04:05:09;14.50;99.90
9790;DHT22;4934;50.852;8.098;2023-06-14T04:07:35;14.90;99.90
9790;DHT22;4934;50.852;8.098;2023-06-14T04:10:06;15.30;99.90
9790;DHT22;4934;50.852;8.098;2023-06-14T04:12:33;15.80;99.90
9790;DHT22;4934;50.852;8.098;2023-06-14T04:14:59;16.10;99.90
9790;DHT22;4934;50.852;8.098;2023-06-14T04:17:24;16.40;99.90
9790;DHT22;4934;50.852;8.098;2023-06-14T04:19:50;16.40;99.90
9790;DHT22;4934;50.852;8.098;2023-06-14T04:22:15;16.30;99.90
9790;DHT22;4934;50.852;8.098;2023-06-14T04:24:41;16.10;99.90
9790;DHT22;4934;50.852;8.098;2023-06-14T04:27:08;16.00;99.90
9790;DHT22;4934;50.852;8.098;2023-06-14T04:29:33;15.80;99.90
9790;DHT22;4934;50.852;8.098;2023-06-14T04:31:59;15.60;99.90
9790;DHT22;4934;50.852;8.098;2023-06-14T04:34:28;15.40;99.90
9790;DHT22;4934;50.852;8.098;2023-06-14T04:36:59;15.30;99.90
9790;DHT22;4934;50.852;8.098;2023-06-14T04:39:27;15.20;99.90
9790;DHT22;4934;50.852;8.098;2023-06-14T04:41:53;15.20;99.90
9790;DHT22;4934;50.852;8.098;2023-06-14T04:44:23;15.30;99.90
9790;DHT22;4934;50.852;8.098;2023-06-14T04:46:56;15.40;99.90
9790;DHT22;4934;50.852;8.098;2023-06-14T04:49:22;15.50;99.90
9790;DHT22;4934;50.852;8.098;2023-06-14T04:51:48;15.60;99.90
9790;DHT22;4934;50.852;8.098;2023-06-14T04:54:23;15.60;99.90
9790;DHT22;4934;50.852;8.098;2023-06-14T04:56:50;15.70;99.90
9790;DHT22;4934;50.852;8.098;2023-06-14T04:59:16;15.80;99.90
9790;DHT22;4934;50.852;8.098;2023-06-14T05:01:43;15.90;99.90
9790;DHT22;4934;50.852;8.098;2023-06-14T05:04:14;16.00;99.90
9790;DHT22;4934;50.852;8.098;2023-06-14T05:06:41;16.10;99.90
9790;DHT22;4934;50.852;8.098;2023-06-14T05:09:07;16.20;99.90
9790;DHT22;4934;50.852;8.098;2023-06-14T05:11:32;16.20;99.90
9790;DHT22;4934;50.852;8.098;2023-06-14T05:13:58;16.00;99.90
9790;DHT22;4934;50.852;8.098;2023-06-14T05:16:23;16.10;99.90
9790;DHT22;4934;50.852;8.098;2023-06-14T05:18:51;16.20;99.90
9790;DHT22;4934;50.852;8.098;2023-06-14T05:21:17;16.20;99.90
9790;DHT22;4934;50.852;8.098;2023-06-14T05:23:46;16.20;99.90
9790;DHT22;4934;50.852;8.098;2023-06-14T05:26:12;16.20;99.90
9790;DHT22;4934;50.852;8.098;2023-06-14T05:28:37;16.00;99.90
9790;DHT22;4934;50.852;8.098;2023-06-14T05:31:03;16.10;99.90
9790;DHT22;4934;50.852;8.098;2023-06-14T05:33:29;16.10;99.90
9790;DHT22;4934;50.852;8.098;2023-06-14T05:35:54;16.10;99.90
9790;DHT22;4934;50.852;8.098;2023-06-14T05:38:21;16.10;99.90
9790;DHT22;4934;50.852;8.098;2023-06-14T05:40:46;16.20;99.90
9790;DHT22;4934;50.852;8.098;2023-06-14T05:43:12;16.10;99.90
9790;DHT22;4934;50.852;8.098;2023-06-14T05:45:37;16.10;99.90
9790;DHT22;4934;50.852;8.098;2023-06-14T05:48:03;16.20;99.90
9790;DHT22;4934;50.852;8.098;2023-06-14T05:50:29;16.30;99.90
9790;DHT22;4934;50.852;8.098;2023-06-14T05:52:55;16.40;99.90
9790;DHT22;4934;50.852;8.098;2023-06-14T05:55:21;16.40;99.90
9790;DHT22;4934;50.852;8.098;2023-06-14T05:57:47;16.50;99.90
9790;DHT22;4934;50.852;8.098;2023-06-14T06:00:14;16.60;99.90
9790;DHT22;4934;50.852;8.098;2023-06-14T06:02:44;16.60;99.90
9790;DHT22;4934;50.852;8.098;2023-06-14T06:05:10;16.50;99.90
9790;DHT22;4934;50.852;8.098;2023-06-14T06:07:37;16.50;99.90
9790;DHT22;4934;50.852;8.098;2023-06-14T06:10:04;16.70;99.90
9790;DHT22;4934;50.852;8.098;2023-06-14T06:12:30;16.80;99.90
9790;DHT22;4934;50.852;8.098;2023-06-14T06:14:56;17.00;99.90
9790;DHT22;4934;50.852;8.098;2023-06-14T06:17:22;17.10;99.90
9790;DHT22;4934;50.852;8.098;2023-06-14T06:19:47;17.10;99.90
9790;DHT22;4934;50.852;8.098;2023-06-14T06:22:13;17.00;99.90
9790;DHT22;4934;50.852;8.098;2023-06-14T06:24:38;17.20;99.90
9790;DHT22;4934;50.852;8.098;2023-06-14T06:27:04;17.40;99.90
9790;DHT22;4934;50.852;8.098;2023-06-14T06:29:30;17.40;99.90
9790;DHT22;4934;50.852;8.098;2023-06-14T06:31:55;17.50;99.90
9790;DHT22;4934;50.852;8.098;2023-06-14T06:34:21;17.50;99.90
9790;DHT22;4934;50.852;8.098;2023-06-14T06:36:47;17.50;99.90
9790;DHT22;4934;50.852;8.098;2023-06-14T06:39:13;17.60;99.90
9790;DHT22;4934;50.852;8.098;2023-06-14T06:41:40;17.80;99.90
9790;DHT22;4934;50.852;8.098;2023-06-14T06:44:06;17.80;99.90
9790;DHT22;4934;50.852;8.098;2023-06-14T06:46:33;17.90;99.90
9790;DHT22;4934;50.852;8.098;2023-06-14T06:49:00;17.90;99.90
9790;DHT22;4934;50.852;8.098;2023-06-14T06:51:26;17.80;99.90
9790;DHT22;4934;50.852;8.098;2023-06-14T06:53:54;17.90;99.90
9790;DHT22;4934;50.852;8.098;2023-06-14T06:56:23;18.00;99.90
9790;DHT22;4934;50.852;8.098;2023-06-14T06:58:50;18.00;99.90
9790;DHT22;4934;50.852;8.098;2023-06-14T07:01:16;18.00;99.90
9790;DHT22;4934;50.852;8.098;2023-06-14T07:03:44;17.70;99.90
9790;DHT22;4934;50.852;8.098;2023-06-14T07:06:09;17.70;99.90
9790;DHT22;4934;50.852;8.098;2023-06-14T07:08:35;17.60;99.90
9790;DHT22;4934;50.852;8.098;2023-06-14T07:11:04;17.60;99.90
9790;DHT22;4934;50.852;8.098;2023-06-14T07:13:30;17.80;99.90
9790;DHT22;4934;50.852;8.098;2023-06-14T07:15:58;17.90;99.90
9790;DHT22;4934;50.852;8.098;2023-06-14T07:18:24;18.00;99.90
9790;DHT22;4934;50.852;8.098;2023-06-14T07:20:50;17.90;99.90
9790;DHT22;4934;50.852;8.098;2023-06-14T07:23:15;18.00;99.90
9790;DHT22;4934;50.852;8.098;2023-06-14T07:25:41;17.90;99.90
9790;DHT22;4934;50.852;8.098;2023-06-14T07:28:06;17.90;99.90
9790;DHT22;4934;50.852;8.098;2023-06-14T07:30:32;18.00;99.90
9790;DHT22;4934;50.852;8.098;2023-06-14T07:32:58;18.10;99.90
9790;DHT22;4934;50.852;8.098;2023-06-14T07:35:23;18.00;99.90
9790;DHT22;4934;50.852;8.098;2023-06-14T07:37:49;18.20;99.90
9790;DHT22;4934;50.852;8.098;2023-06-14T07:40:15;18.10;99.90
9790;DHT22;4934;50.852;8.098;2023-06-14T07:42:40;18.30;99.90
9790;DHT22;4934;50.852;8.098;2023-06-14T07:45:06;18.50;99.90
9790;DHT22;4934;50.852;8.098;2023-06-14T07:47:33;18.80;99.90
9790;DHT22;4934;50.852;8.098;2023-06-14T07:49:58;19.00;99.90
9790;DHT22;4934;50.852;8.098;2023-06-14T07:52:24;19.10;99.90
9790;DHT22;4934;50.852;8.098;2023-06-14T07:54:50;19.10;99.90
9790;DHT22;4934;50.852;8.098;2023-06-14T07:57:16;19.30;99.90
9790;DHT22;4934;50.852;8.098;2023-06-14T07:59:41;19.30;99.90
9790;DHT22;4934;50.852;8.098;2023-06-14T08:02:07;19.40;99.90
9790;DHT22;4934;50.852;8.098;2023-06-14T08:04:33;19.50;99.90
9790;DHT22;4934;50.852;8.098;2023-06-14T08:07:00;19.60;99.90
9790;DHT22;4934;50.852;8.098;2023-06-14T08:09:26;19.70;99.90
9790;DHT22;4934;50.852;8.098;2023-06-14T08:11:54;19.50;99.90
9790;DHT22;4934;50.852;8.098;2023-06-14T08:14:19;19.50;99.90
9790;DHT22;4934;50.852;8.098;2023-06-14T08:16:45;19.60;99.90
9790;DHT22;4934;50.852;8.098;2023-06-14T08:19:10;19.60;99.90
9790;DHT22;4934;50.852;8.098;2023-06-14T08:21:36;19.50;99.90
9790;DHT22;4934;50.852;8.098;2023-06-14T08:24:02;19.50;99.90
9790;DHT22;4934;50.852;8.098;2023-06-14T08:26:29;19.50;99.90
9790;DHT22;4934;50.852;8.098;2023-06-14T08:28:55;19.60;99.90
9790;DHT22;4934;50.852;8.098;2023-06-14T08:31:21;19.70;99.90
9790;DHT22;4934;50.852;8.098;2023-06-14T08:33:47;19.80;99.90
9790;DHT22;4934;50.852;8.098;2023-06-14T08:36:13;20.00;99.90
9790;DHT22;4934;50.852;8.098;2023-06-14T08:38:39;20.10;99.90
9790;DHT22;4934;50.852;8.098;2023-06-14T08:41:05;20.10;99.50
9790;DHT22;4934;50.852;8.098;2023-06-14T08:43:34;19.70;99.90
9790;DHT22;4934;50.852;8.098;2023-06-14T08:46:03;19.60;99.80
9790;DHT22;4934;50.852;8.098;2023-06-14T08:48:30;19.60;98.80
9790;DHT22;4934;50.852;8.098;2023-06-14T08:51:02;19.60;98.00
9790;DHT22;4934;50.852;8.098;2023-06-14T08:53:33;19.90;97.60
9790;DHT22;4934;50.852;8.098;2023-06-14T08:55:59;20.00;98.50
9790;DHT22;4934;50.852;8.098;2023-06-14T08:58:28;20.00;99.70
9790;DHT22;4934;50.852;8.098;2023-06-14T09:00:55;19.70;99.20
9790;DHT22;4934;50.852;8.098;2023-06-14T09:03:21;19.80;99.90
9790;DHT22;4934;50.852;8.098;2023-06-14T09:05:48;19.50;99.90
9790;DHT22;4934;50.852;8.098;2023-06-14T09:08:15;19.50;99.90
9790;DHT22;4934;50.852;8.098;2023-06-14T09:10:41;19.70;99.90
9790;DHT22;4934;50.852;8.098;2023-06-14T09:13:07;19.90;99.40
9790;DHT22;4934;50.852;8.098;2023-06-14T09:15:33;20.10;99.50
9790;DHT22;4934;50.852;8.098;2023-06-14T09:18:01;20.20;99.90
9790;DHT22;4934;50.852;8.098;2023-06-14T09:20:29;20.50;99.80
9790;DHT22;4934;50.852;8.098;2023-06-14T09:22:55;21.00;99.90
9790;DHT22;4934;50.852;8.098;2023-06-14T09:25:21;21.20;99.60
9790;DHT22;4934;50.852;8.098;2023-06-14T09:27:47;21.30;97.30
9790;DHT22;4934;50.852;8.098;2023-06-14T09:30:13;21.30;98.10
9790;DHT22;4934;50.852;8.098;2023-06-14T09:32:39;21.00;97.40
9790;DHT22;4934;50.852;8.098;2023-06-14T09:35:09;20.80;97.10
9790;DHT22;4934;50.852;8.098;2023-06-14T09:37:35;20.70;96.90
9790;DHT22;4934;50.852;8.098;2023-06-14T09:40:01;20.90;97.70
9790;DHT22;4934;50.852;8.098;2023-06-14T09:42:28;21.00;97.10
9790;DHT22;4934;50.852;8.098;2023-06-14T09:44:55;20.70;96.70
9790;DHT22;4934;50.852;8.098;2023-06-14T09:47:22;20.40;97.90
9790;DHT22;4934;50.852;8.098;2023-06-14T09:49:48;20.70;97.20
9790;DHT22;4934;50.852;8.098;2023-06-14T09:52:17;20.70;96.60
9790;DHT22;4934;50.852;8.098;2023-06-14T09:54:45;20.40;97.00
9790;DHT22;4934;50.852;8.098;2023-06-14T09:57:23;20.60;96.80
9790;DHT22;4934;50.852;8.098;2023-06-14T09:59:53;20.70;96.70
9790;DHT22;4934;50.852;8.098;2023-06-14T10:02:29;20.80;96.60
9790;DHT22;4934;50.852;8.098;2023-06-14T10:05:06;20.80;96.90
9790;DHT22;4934;50.852;8.098;2023-06-14T10:07:37;21.10;97.30
9790;DHT22;4934;50.852;8.098;2023-06-14T10:10:04;21.10;97.00
9790;DHT22;4934;50.852;8.098;2023-06-14T10:12:31;21.40;97.30
9790;DHT22;4934;50.852;8.098;2023-06-14T10:14:56;21.50;97.30
9790;DHT22;4934;50.852;8.098;2023-06-14T10:17:42;21.10;95.60
9790;DHT22;4934;50.852;8.098;2023-06-14T10:20:52;21.00;96.50
9790;DHT22;4934;50.852;8.098;2023-06-14T10:23:23;20.70;96.00
9790;DHT22;4934;50.852;8.098;2023-06-14T10:25:49;20.70;96.20
9790;DHT22;4934;50.852;8.098;2023-06-14T10:28:22;20.90;96.20
9790;DHT22;4934;50.852;8.098;2023-06-14T10:31:08;21.30;96.90
9790;DHT22;4934;50.852;8.098;2023-06-14T10:36:27;21.70;95.30
9790;DHT22;4934;50.852;8.098;2023-06-14T10:39:08;21.50;95.20
9790;DHT22;4934;50.852;8.098;2023-06-14T10:41:40;21.50;96.00
9790;DHT22;4934;50.852;8.098;2023-06-14T10:46:52;21.50;95.50
9790;DHT22;4934;50.852;8.098;2023-06-14T10:49:43;21.70;96.10
9790;DHT22;4934;50.852;8.098;2023-06-14T10:52:12;22.30;95.90
9790;DHT22;4934;50.852;8.098;2023-06-14T10:55:05;22.30;94.20
9790;DHT22;4934;50.852;8.098;2023-06-14T10:57:39;22.30;94.10
9790;DHT22;4934;50.852;8.098;2023-06-14T11:00:07;22.30;94.00
9790;DHT22;4934;50.852;8.098;2023-06-14T11:05:50;22.30;94.40
9790;DHT22;4934;50.852;8.098;2023-06-14T11:08:45;22.00;94.20
9790;DHT22;4934;50.852;8.098;2023-06-14T11:11:13;22.30;94.60
9790;DHT22;4934;50.852;8.098;2023-06-14T11:13:44;21.90;94.70
9790;DHT22;4934;50.852;8.098;2023-06-14T11:16:15;21.90;93.30
9790;DHT22;4934;50.852;8.098;2023-06-14T11:18:41;21.60;93.70
9790;DHT22;4934;50.852;8.098;2023-06-14T11:21:07;21.50;93.30
9790;DHT22;4934;50.852;8.098;2023-06-14T11:23:35;21.60;93.10
9790;DHT22;4934;50.852;8.098;2023-06-14T11:26:00;21.70;93.60
9790;DHT22;4934;50.852;8.098;2023-06-14T11:28:39;21.70;92.50
9790;DHT22;4934;50.852;8.098;2023-06-14T11:31:05;21.60;93.10
9790;DHT22;4934;50.852;8.098;2023-06-14T11:33:31;21.60;93.40
9790;DHT22;4934;50.852;8.098;2023-06-14T11:35:56;21.70;93.50
9790;DHT22;4934;50.852;8.098;2023-06-14T11:38:22;21.60;93.20
9790;DHT22;4934;50.852;8.098;2023-06-14T11:40:48;21.60;92.80
9790;DHT22;4934;50.852;8.098;2023-06-14T11:43:13;21.60;94.10
9790;DHT22;4934;50.852;8.098;2023-06-14T11:45:39;22.10;94.70
9790;DHT22;4934;50.852;8.098;2023-06-14T11:48:06;22.20;92.00
9790;DHT22;4934;50.852;8.098;2023-06-14T11:50:32;22.20;90.90
9790;DHT22;4934;50.852;8.098;2023-06-14T11:53:01;22.20;91.30
9790;DHT22;4934;50.852;8.098;2023-06-14T11:55:36;22.50;91.30
9790;DHT22;4934;50.852;8.098;2023-06-14T11:58:02;22.70;93.90
9790;DHT22;4934;50.852;8.098;2023-06-14T12:00:28;23.20;94.40
9790;DHT22;4934;50.852;8.098;2023-06-14T12:02:55;23.40;92.20
9790;DHT22;4934;50.852;8.098;2023-06-14T12:05:22;23.80;91.20
9790;DHT22;4934;50.852;8.098;2023-06-14T12:07:48;23.90;92.00
9790;DHT22;4934;50.852;8.098;2023-06-14T12:10:14;24.40;91.90
9790;DHT22;4934;50.852;8.098;2023-06-14T12:12:40;24.30;88.50
9790;DHT22;4934;50.852;8.098;2023-06-14T12:15:08;23.70;90.20
9790;DHT22;4934;50.852;8.098;2023-06-14T12:17:35;23.30;89.30
9790;DHT22;4934;50.852;8.098;2023-06-14T12:20:14;22.70;89.30
9790;DHT22;4934;50.852;8.098;2023-06-14T12:22:55;22.10;90.30
9790;DHT22;4934;50.852;8.098;2023-06-14T12:25:34;22.00;90.30
9790;DHT22;4934;50.852;8.098;2023-06-14T12:30:30;22.00;91.20
9790;DHT22;4934;50.852;8.098;2023-06-14T12:32:56;21.70;91.80
9790;DHT22;4934;50.852;8.098;2023-06-14T12:35:21;21.70;91.10
9790;DHT22;4934;50.852;8.098;2023-06-14T12:37:47;21.60;91.20
9790;DHT22;4934;50.852;8.098;2023-06-14T12:40:13;22.00;90.30
9790;DHT22;4934;50.852;8.098;2023-06-14T12:42:40;22.40;91.30
9790;DHT22;4934;50.852;8.098;2023-06-14T12:45:06;22.30;91.00
9790;DHT22;4934;50.852;8.098;2023-06-14T12:47:32;22.50;91.40
9790;DHT22;4934;50.852;8.098;2023-06-14T12:49:57;22.30;89.10
9790;DHT22;4934;50.852;8.098;2023-06-14T12:52:23;22.70;91.50
9790;DHT22;4934;50.852;8.098;2023-06-14T12:54:49;22.90;89.50
9790;DHT22;4934;50.852;8.098;2023-06-14T12:57:15;23.00;88.80
9790;DHT22;4934;50.852;8.098;2023-06-14T12:59:40;22.90;88.60
9790;DHT22;4934;50.852;8.098;2023-06-14T13:02:13;22.90;87.10
9790;DHT22;4934;50.852;8.098;2023-06-14T13:04:39;23.10;88.20
9790;DHT22;4934;50.852;8.098;2023-06-14T13:07:05;23.10;88.90
9790;DHT22;4934;50.852;8.098;2023-06-14T13:09:30;22.80;86.80
9790;DHT22;4934;50.852;8.098;2023-06-14T13:11:56;22.60;87.20
9790;DHT22;4934;50.852;8.098;2023-06-14T13:14:22;22.40;87.00
9790;DHT22;4934;50.852;8.098;2023-06-14T13:16:48;21.90;86.40
9790;DHT22;4934;50.852;8.098;2023-06-14T13:19:13;21.90;87.90
9790;DHT22;4934;50.852;8.098;2023-06-14T13:21:39;22.10;90.50
9790;DHT22;4934;50.852;8.098;2023-06-14T13:24:05;22.30;87.50
9790;DHT22;4934;50.852;8.098;2023-06-14T13:26:31;22.00;86.60
9790;DHT22;4934;50.852;8.098;2023-06-14T13:28:56;21.90;89.10
9790;DHT22;4934;50.852;8.098;2023-06-14T13:31:22;22.00;89.30
9790;DHT22;4934;50.852;8.098;2023-06-14T13:33:47;22.00;87.90
9790;DHT22;4934;50.852;8.098;2023-06-14T13:36:13;21.90;87.20
9790;DHT22;4934;50.852;8.098;2023-06-14T13:38:38;21.90;87.50
9790;DHT22;4934;50.852;8.098;2023-06-14T13:41:04;22.10;90.30
9790;DHT22;4934;50.852;8.098;2023-06-14T13:43:30;22.70;90.00
9790;DHT22;4934;50.852;8.098;2023-06-14T13:45:56;22.80;87.10
9790;DHT22;4934;50.852;8.098;2023-06-14T13:48:21;22.60;87.40
9790;DHT22;4934;50.852;8.098;2023-06-14T13:50:47;22.40;88.30
9790;DHT22;4934;50.852;8.098;2023-06-14T13:53:13;22.40;86.10
9790;DHT22;4934;50.852;8.098;2023-06-14T13:55:39;22.30;87.50
9790;DHT22;4934;50.852;8.098;2023-06-14T13:58:05;22.30;87.40
9790;DHT22;4934;50.852;8.098;2023-06-14T14:00:30;22.80;85.70
9790;DHT22;4934;50.852;8.098;2023-06-14T14:02:56;23.30;85.00
9790;DHT22;4934;50.852;8.098;2023-06-14T14:05:22;23.80;84.00
9790;DHT22;4934;50.852;8.098;2023-06-14T14:07:53;24.20;84.20
9790;DHT22;4934;50.852;8.098;2023-06-14T14:10:20;24.50;85.80
9790;DHT22;4934;50.852;8.098;2023-06-14T14:12:46;24.80;81.90
9790;DHT22;4934;50.852;8.098;2023-06-14T14:15:11;24.50;82.10
9790;DHT22;4934;50.852;8.098;2023-06-14T14:17:40;24.60;84.80
9790;DHT22;4934;50.852;8.098;2023-06-14T14:20:06;24.80;79.10
9790;DHT22;4934;50.852;8.098;2023-06-14T14:22:32;25.20;80.50
9790;DHT22;4934;50.852;8.098;2023-06-14T14:24:58;25.00;78.80
9790;DHT22;4934;50.852;8.098;2023-06-14T14:27:23;24.60;79.40
9790;DHT22;4934;50.852;8.098;2023-06-14T14:29:49;24.90;80.10
9790;DHT22;4934;50.852;8.098;2023-06-14T14:32:14;25.30;78.90
9790;DHT22;4934;50.852;8.098;2023-06-14T14:34:40;25.40;79.40
9790;DHT22;4934;50.852;8.098;2023-06-14T14:37:06;25.20;78.20
9790;DHT22;4934;50.852;8.098;2023-06-14T14:39:32;24.70;77.10
9790;DHT22;4934;50.852;8.098;2023-06-14T14:41:58;24.10;76.60
9790;DHT22;4934;50.852;8.098;2023-06-14T14:44:23;23.80;78.40
9790;DHT22;4934;50.852;8.098;2023-06-14T14:46:49;23.50;78.00
9790;DHT22;4934;50.852;8.098;2023-06-14T14:49:14;23.50;77.70
9790;DHT22;4934;50.852;8.098;2023-06-14T14:51:40;23.60;77.10
9790;DHT22;4934;50.852;8.098;2023-06-14T14:54:06;24.10;76.90
9790;DHT22;4934;50.852;8.098;2023-06-14T14:56:32;23.90;76.90
9790;DHT22;4934;50.852;8.098;2023-06-14T14:58:58;23.70;78.90
9790;DHT22;4934;50.852;8.098;2023-06-14T15:01:23;23.70;77.70
9790;DHT22;4934;50.852;8.098;2023-06-14T15:03:49;23.40;77.50
9790;DHT22;4934;50.852;8.098;2023-06-14T15:06:14;23.40;78.80
9790;DHT22;4934;50.852;8.098;2023-06-14T15:08:40;23.70;77.20
9790;DHT22;4934;50.852;8.098;2023-06-14T15:11:06;24.10;77.10
9790;DHT22;4934;50.852;8.098;2023-06-14T15:13:32;24.20;76.40
9790;DHT22;4934;50.852;8.098;2023-06-14T15:15:57;24.60;77.60
9790;DHT22;4934;50.852;8.098;2023-06-14T15:18:23;25.00;78.80
9790;DHT22;4934;50.852;8.098;2023-06-14T15:20:49;24.90;76.30
9790;DHT22;4934;50.852;8.098;2023-06-14T15:23:15;24.50;75.00
9790;DHT22;4934;50.852;8.098;2023-06-14T15:25:45;24.20;75.50
9790;DHT22;4934;50.852;8.098;2023-06-14T15:28:12;24.10;77.30
9790;DHT22;4934;50.852;8.098;2023-06-14T15:30:38;24.40;78.20
9790;DHT22;4934;50.852;8.098;2023-06-14T15:33:03;24.40;74.00
9790;DHT22;4934;50.852;8.098;2023-06-14T15:35:29;24.70;74.40
9790;DHT22;4934;50.852;8.098;2023-06-14T15:37:55;24.80;74.50
9790;DHT22;4934;50.852;8.098;2023-06-14T15:40:20;24.80;74.50
9790;DHT22;4934;50.852;8.098;2023-06-14T15:42:46;25.00;75.50
9790;DHT22;4934;50.852;8.098;2023-06-14T15:45:11;24.50;74.60
9790;DHT22;4934;50.852;8.098;2023-06-14T15:47:37;24.60;71.80
9790;DHT22;4934;50.852;8.098;2023-06-14T15:50:03;24.50;71.20
9790;DHT22;4934;50.852;8.098;2023-06-14T15:52:33;24.20;72.60
9790;DHT22;4934;50.852;8.098;2023-06-14T15:54:58;24.40;72.80
9790;DHT22;4934;50.852;8.098;2023-06-14T15:57:24;24.30;73.20
9790;DHT22;4934;50.852;8.098;2023-06-14T15:59:49;24.10;72.40
9790;DHT22;4934;50.852;8.098;2023-06-14T16:02:15;23.90;69.60
9790;DHT22;4934;50.852;8.098;2023-06-14T16:04:41;24.10;71.60
9790;DHT22;4934;50.852;8.098;2023-06-14T16:07:06;24.50;73.60
9790;DHT22;4934;50.852;8.098;2023-06-14T16:09:32;25.00;74.50
9790;DHT22;4934;50.852;8.098;2023-06-14T16:11:57;25.40;71.60